sensor_id;sensor_type;location;lat;lon;timestamp;pressure;altitude;pressure_sealevel;temperature;humidity
24280;BME280;12395;42.808;23.408;2023-05-09T00:01:52;95175.47;;;11.75;100.00
24280;BME280;12395;42.808;23.408;2023-05-09T00:04:18;95190.78;;;11.86;100.00
24280;BME280;12395;42.808;23.408;2023-05-09T00:06:44;95195.03;;;11.94;100.00
24280;BME280;12395;42.808;23.408;2023-05-09T00:09:10;95195.47;;;11.91;100.00
24280;BME280;12395;42.808;23.408;2023-05-09T00:11:36;95188.88;;;12.00;100.00
24280;BME280;12395;42.808;23.408;2023-05-09T00:14:02;95191.94;;;12.10;100.00
24280;BME280;12395;42.808;23.408;2023-05-09T00:16:28;95188.03;;;12.12;100.00
24280;BME280;12395;42.808;23.408;2023-05-09T00:18:53;95171.28;;;12.12;100.00
24280;BME280;12395;42.808;23.408;2023-05-09T00:21:20;95186.34;;;12.24;100.00
24280;BME280;12395;42.808;23.408;2023-05-09T00:23:46;95169.56;;;12.30;100.00
24280;BME280;12395;42.808;23.408;2023-05-09T00:26:12;95175.69;;;12.37;100.00
24280;BME280;12395;42.808;23.408;2023-05-09T00:28:37;95175.22;;;12.47;100.00
24280;BME280;12395;42.808;23.408;2023-05-09T00:31:02;95168.06;;;12.48;100.00
24280;BME280;12395;42.808;23.408;2023-05-09T00:33:28;95162.09;;;12.52;100.00
24280;BME280;12395;42.808;23.408;2023-05-09T00:35:54;95169.44;;;12.57;100.00
24280;BME280;12395;42.808;23.408;2023-05-09T00:38:19;95175.72;;;12.69;100.00
24280;BME280;12395;42.808;23.408;2023-05-09T00:40:45;95165.28;;;12.67;100.00
24280;BME280;12395;42.808;23.408;2023-05-09T00:43:10;95152.59;;;12.69;100.00
24280;BME280;12395;42.808;23.408;2023-05-09T00:45:36;95160.31;;;12.77;100.00
24280;BME280;12395;42.808;23.408;2023-05-09T00:48:01;95167.22;;;12.85;100.00
24280;BME280;12395;42.808;23.408;2023-05-09T00:50:27;95159.91;;;12.80;100.00
24280;BME280;12395;42.808;23.408;2023-05-09T00:52:52;95164.41;;;12.80;100.00
24280;BME280;12395;42.808;23.408;2023-05-09T00:55:18;95165.59;;;12.84;100.00
24280;BME280;12395;42.808;23.408;2023-05-09T00:57:44;95164.63;;;12.78;100.00
24280;BME280;12395;42.808;23.408;2023-05-09T01:00:10;95140.38;;;12.62;100.00
24280;BME280;12395;42.808;23.408;2023-05-09T01:02:48;95153.88;;;12.60;100.00
24280;BME280;12395;42.808;23.408;2023-05-09T01:05:14;95147.00;;;12.46;100.00
24280;BME280;12395;42.808;23.408;2023-05-09T01:08:16;95162.94;;;12.53;100.00
24280;BME280;12395;42.808;23.408;2023-05-09T01:10:44;95163.78;;;12.47;100.00
24280;BME280;12395;42.808;23.408;2023-05-09T01:16:10;95164.66;;;12.27;100.00
24280;BME280;12395;42.808;23.408;2023-05-09T01:18:48;95168.78;;;12.23;100.00
24280;BME280;12395;42.808;23.408;2023-05-09T01:21:18;95164.28;;;12.24;100.00
24280;BME280;12395;42.808;23.408;2023-05-09T01:26:19;95170.44;;;12.18;100.00
24280;BME280;12395;42.808;23.408;2023-05-09T01:31:55;95163.34;;;12.05;100.00
24280;BME280;12395;42.808;23.408;2023-05-09T01:34:25;95172.91;;;12.06;100.00
24280;BME280;12395;42.808;23.408;2023-05-09T01:36:55;95165.19;;;11.98;100.00
24280;BME280;12395;42.808;23.408;2023-05-09T01:39:24;95167.25;;;11.96;100.00
24280;BME280;12395;42.808;23.408;2023-05-09T01:41:52;95173.97;;;11.99;100.00
24280;BME280;12395;42.808;23.408;2023-05-09T01:44:20;95164.81;;;11.95;100.00
24280;BME280;12395;42.808;23.408;2023-05-09T01:46:46;95178.25;;;12.00;100.00
24280;BME280;12395;42.808;23.408;2023-05-09T01:49:13;95157.47;;;11.84;100.00
24280;BME280;12395;42.808;23.408;2023-05-09T01:51:40;95163.63;;;11.84;100.00
24280;BME280;12395;42.808;23.408;2023-05-09T01:54:06;95182.56;;;11.94;100.00
24280;BME280;12395;42.808;23.408;2023-05-09T01:56:32;95188.50;;;11.96;100.00
24280;BME280;12395;42.808;23.408;2023-05-09T01:59:01;95184.00;;;11.97;100.00
24280;BME280;12395;42.808;23.408;2023-05-09T02:01:27;95175.84;;;11.85;100.00
24280;BME280;12395;42.808;23.408;2023-05-09T02:03:55;95180.31;;;11.91;100.00
24280;BME280;12395;42.808;23.408;2023-05-09T02:06:22;95176.28;;;11.82;100.00
24280;BME280;12395;42.808;23.408;2023-05-09T02:08:48;95144.03;;;11.59;100.00
24280;BME280;12395;42.808;23.408;2023-05-09T02:11:14;95166.06;;;11.66;100.00
24280;BME280;12395;42.808;23.408;2023-05-09T02:13:40;95169.56;;;11.67;100.00
24280;BME280;12395;42.808;23.408;2023-05-09T02:16:06;95168.94;;;11.58;100.00
24280;BME280;12395;42.808;23.408;2023-05-09T02:18:32;95169.34;;;11.55;100.00
24280;BME280;12395;42.808;23.408;2023-05-09T02:20:58;95164.88;;;11.49;100.00
24280;BME280;12395;42.808;23.408;2023-05-09T02:23:24;95160.78;;;11.46;100.00
24280;BME280;12395;42.808;23.408;2023-05-09T02:25:50;95165.06;;;11.54;100.00
24280;BME280;12395;42.808;23.408;2023-05-09T02:28:20;95159.56;;;11.55;100.00
24280;BME280;12395;42.808;23.408;2023-05-09T02:30:48;95151.19;;;11.58;100.00
24280;BME280;12395;42.808;23.408;2023-05-09T02:33:14;95163.84;;;11.56;100.00
24280;BME280;12395;42.808;23.408;2023-05-09T02:35:42;95162.00;;;11.57;100.00
24280;BME280;12395;42.808;23.408;2023-05-09T02:38:08;95165.28;;;11.52;100.00
24280;BME280;12395;42.808;23.408;2023-05-09T02:40:34;95165.31;;;11.46;100.00
24280;BME280;12395;42.808;23.408;2023-05-09T02:43:00;95175.47;;;11.49;100.00
24280;BME280;12395;42.808;23.408;2023-05-09T02:45:26;95182.00;;;11.53;100.00
24280;BME280;12395;42.808;23.408;2023-05-09T02:47:51;95175.91;;;11.46;100.00
24280;BME280;12395;42.808;23.408;2023-05-09T02:50:17;95178.13;;;11.49;100.00
24280;BME280;12395;42.808;23.408;2023-05-09T02:52:42;95166.91;;;11.47;100.00
24280;BME280;12395;42.808;23.408;2023-05-09T02:55:08;95177.91;;;11.57;100.00
24280;BME280;12395;42.808;23.408;2023-05-09T02:57:34;95192.22;;;11.69;100.00
24280;BME280;12395;42.808;23.408;2023-05-09T03:00:00;95191.00;;;11.65;100.00
24280;BME280;12395;42.808;23.408;2023-05-09T03:02:25;95184.84;;;11.64;100.00
24280;BME280;12395;42.808;23.408;2023-05-09T03:04:50;95183.66;;;11.67;100.00
24280;BME280;12395;42.808;23.408;2023-05-09T03:07:16;95192.41;;;11.68;100.00
24280;BME280;12395;42.808;23.408;2023-05-09T03:09:41;95192.22;;;11.76;100.00
24280;BME280;12395;42.808;23.408;2023-05-09T03:12:07;95187.31;;;11.79;100.00
24280;BME280;12395;42.808;23.408;2023-05-09T03:14:32;95177.09;;;11.76;100.00
24280;BME280;12395;42.808;23.408;2023-05-09T03:16:58;95202.81;;;11.95;100.00
24280;BME280;12395;42.808;23.408;2023-05-09T03:19:23;95198.50;;;12.01;100.00
24280;BME280;12395;42.808;23.408;2023-05-09T03:21:49;95209.31;;;12.06;100.00
24280;BME280;12395;42.808;23.408;2023-05-09T03:24:15;95206.44;;;12.01;100.00
24280;BME280;12395;42.808;23.408;2023-05-09T03:26:40;95210.09;;;12.06;100.00
24280;BME280;12395;42.808;23.408;2023-05-09T03:29:05;95212.56;;;12.14;100.00
24280;BME280;12395;42.808;23.408;2023-05-09T03:31:31;95211.75;;;12.07;100.00
24280;BME280;12395;42.808;23.408;2023-05-09T03:33:56;95219.28;;;12.10;100.00
24280;BME280;12395;42.808;23.408;2023-05-09T03:36:22;95221.53;;;12.13;100.00
24280;BME280;12395;42.808;23.408;2023-05-09T03:38:47;95213.38;;;12.08;100.00
24280;BME280;12395;42.808;23.408;2023-05-09T03:41:15;95207.66;;;12.05;100.00
24280;BME280;12395;42.808;23.408;2023-05-09T03:43:40;95224.34;;;12.31;100.00
24280;BME280;12395;42.808;23.408;2023-05-09T03:46:06;95208.00;;;12.28;100.00
24280;BME280;12395;42.808;23.408;2023-05-09T03:48:31;95209.81;;;12.34;100.00
24280;BME280;12395;42.808;23.408;2023-05-09T03:50:57;95222.06;;;12.42;98.15
24280;BME280;12395;42.808;23.408;2023-05-09T03:53:22;95218.19;;;12.37;98.12
24280;BME280;12395;42.808;23.408;2023-05-09T03:55:47;95223.06;;;12.40;98.24
24280;BME280;12395;42.808;23.408;2023-05-09T03:58:13;95207.16;;;12.34;97.92
24280;BME280;12395;42.808;23.408;2023-05-09T04:00:39;95229.41;;;12.39;97.87
24280;BME280;12395;42.808;23.408;2023-05-09T04:03:05;95229.19;;;12.41;98.17
24280;BME280;12395;42.808;23.408;2023-05-09T04:05:31;95210.03;;;12.26;98.49
24280;BME280;12395;42.808;23.408;2023-05-09T04:07:58;95238.63;;;12.37;98.06
24280;BME280;12395;42.808;23.408;2023-05-09T04:10:23;95233.13;;;12.32;98.29
24280;BME280;12395;42.808;23.408;2023-05-09T04:12:49;95237.81;;;12.36;98.32
24280;BME280;12395;42.808;23.408;2023-05-09T04:15:15;95234.28;;;12.43;98.20
24280;BME280;12395;42.808;23.408;2023-05-09T04:17:40;95239.00;;;12.40;98.11
24280;BME280;12395;42.808;23.408;2023-05-09T04:20:06;95234.50;;;12.41;98.33
24280;BME280;12395;42.808;23.408;2023-05-09T04:22:32;95235.34;;;12.42;97.61
24280;BME280;12395;42.808;23.408;2023-05-09T04:24:58;95235.16;;;12.36;98.17
24280;BME280;12395;42.808;23.408;2023-05-09T04:27:23;95242.72;;;12.33;98.12
24280;BME280;12395;42.808;23.408;2023-05-09T04:29:49;95225.34;;;12.30;98.30
24280;BME280;12395;42.808;23.408;2023-05-09T04:32:14;95239.44;;;12.37;98.28
24280;BME280;12395;42.808;23.408;2023-05-09T04:34:39;95243.31;;;12.42;98.59
24280;BME280;12395;42.808;23.408;2023-05-09T04:37:05;95226.75;;;12.39;97.97
24280;BME280;12395;42.808;23.408;2023-05-09T04:39:30;95248.72;;;12.66;97.06
24280;BME280;12395;42.808;23.408;2023-05-09T04:41:56;95247.91;;;12.72;95.86
24280;BME280;12395;42.808;23.408;2023-05-09T04:44:22;95259.69;;;12.83;94.90
24280;BME280;12395;42.808;23.408;2023-05-09T04:46:49;95249.84;;;12.83;94.41
24280;BME280;12395;42.808;23.408;2023-05-09T04:49:14;95252.66;;;12.95;95.53
24280;BME280;12395;42.808;23.408;2023-05-09T04:51:40;95255.50;;;13.06;94.01
24280;BME280;12395;42.808;23.408;2023-05-09T04:54:05;95247.84;;;13.23;94.14
24280;BME280;12395;42.808;23.408;2023-05-09T04:56:31;95255.28;;;13.39;94.26
24280;BME280;12395;42.808;23.408;2023-05-09T04:58:56;95246.66;;;13.44;91.65
24280;BME280;12395;42.808;23.408;2023-05-09T05:01:21;95254.31;;;13.58;90.36
24280;BME280;12395;42.808;23.408;2023-05-09T05:03:47;95256.88;;;13.71;89.47
24280;BME280;12395;42.808;23.408;2023-05-09T05:06:12;95261.97;;;13.73;87.71
24280;BME280;12395;42.808;23.408;2023-05-09T05:08:37;95253.25;;;13.66;88.26
24280;BME280;12395;42.808;23.408;2023-05-09T05:11:03;95250.00;;;13.82;87.74
24280;BME280;12395;42.808;23.408;2023-05-09T05:13:28;95254.78;;;13.98;87.83
24280;BME280;12395;42.808;23.408;2023-05-09T05:15:54;95259.84;;;14.06;88.77
24280;BME280;12395;42.808;23.408;2023-05-09T05:18:20;95258.19;;;14.30;87.17
24280;BME280;12395;42.808;23.408;2023-05-09T05:20:46;95221.81;;;14.35;85.15
24280;BME280;12395;42.808;23.408;2023-05-09T05:23:11;95238.56;;;14.60;81.51
24280;BME280;12395;42.808;23.408;2023-05-09T05:25:37;95234.19;;;14.30;81.11
24280;BME280;12395;42.808;23.408;2023-05-09T05:28:02;95263.25;;;14.56;82.70
24280;BME280;12395;42.808;23.408;2023-05-09T05:30:28;95273.44;;;14.59;82.49
24280;BME280;12395;42.808;23.408;2023-05-09T05:32:53;95256.34;;;14.48;81.62
24280;BME280;12395;42.808;23.408;2023-05-09T05:35:18;95260.06;;;14.23;82.52
24280;BME280;12395;42.808;23.408;2023-05-09T05:37:47;95260.19;;;14.10;83.46
24280;BME280;12395;42.808;23.408;2023-05-09T05:40:13;95264.06;;;14.14;85.04
24280;BME280;12395;42.808;23.408;2023-05-09T05:42:38;95276.22;;;14.28;83.96
24280;BME280;12395;42.808;23.408;2023-05-09T05:45:04;95277.25;;;14.27;84.14
24280;BME280;12395;42.808;23.408;2023-05-09T05:47:33;95288.41;;;14.42;84.02
24280;BME280;12395;42.808;23.408;2023-05-09T05:49:59;95275.50;;;14.57;82.86
24280;BME280;12395;42.808;23.408;2023-05-09T05:52:25;95278.84;;;14.52;81.35
24280;BME280;12395;42.808;23.408;2023-05-09T05:54:51;95279.13;;;14.26;81.82
24280;BME280;12395;42.808;23.408;2023-05-09T05:57:17;95258.00;;;14.25;82.02
24280;BME280;12395;42.808;23.408;2023-05-09T05:59:42;95274.88;;;14.43;82.32
24280;BME280;12395;42.808;23.408;2023-05-09T06:02:08;95267.28;;;14.58;80.59
24280;BME280;12395;42.808;23.408;2023-05-09T06:04:33;95279.81;;;14.76;80.64
24280;BME280;12395;42.808;23.408;2023-05-09T06:06:58;95276.75;;;14.91;79.75
24280;BME280;12395;42.808;23.408;2023-05-09T06:09:24;95284.19;;;15.18;78.52
24280;BME280;12395;42.808;23.408;2023-05-09T06:11:50;95269.72;;;15.26;78.84
24280;BME280;12395;42.808;23.408;2023-05-09T06:14:15;95279.94;;;15.59;77.26
24280;BME280;12395;42.808;23.408;2023-05-09T06:16:40;95279.72;;;15.72;75.65
24280;BME280;12395;42.808;23.408;2023-05-09T06:19:06;95276.94;;;15.67;75.83
24280;BME280;12395;42.808;23.408;2023-05-09T06:21:31;95284.19;;;16.01;77.62
24280;BME280;12395;42.808;23.408;2023-05-09T06:23:58;95271.75;;;16.41;75.26
24280;BME280;12395;42.808;23.408;2023-05-09T06:26:23;95268.59;;;16.67;74.15
24280;BME280;12395;42.808;23.408;2023-05-09T06:28:50;95284.38;;;17.20;71.61
24280;BME280;12395;42.808;23.408;2023-05-09T06:31:15;95272.50;;;17.28;70.11
24280;BME280;12395;42.808;23.408;2023-05-09T06:33:41;95280.31;;;17.18;68.39
24280;BME280;12395;42.808;23.408;2023-05-09T06:36:06;95279.34;;;17.24;68.40
24280;BME280;12395;42.808;23.408;2023-05-09T06:38:32;95278.84;;;17.10;67.07
24280;BME280;12395;42.808;23.408;2023-05-09T06:40:58;95295.50;;;17.01;67.23
24280;BME280;12395;42.808;23.408;2023-05-09T06:43:23;95289.63;;;16.87;68.19
24280;BME280;12395;42.808;23.408;2023-05-09T06:45:48;95273.97;;;16.44;67.89
24280;BME280;12395;42.808;23.408;2023-05-09T06:48:14;95298.00;;;16.21;68.94
24280;BME280;12395;42.808;23.408;2023-05-09T06:50:39;95275.13;;;16.02;71.19
24280;BME280;12395;42.808;23.408;2023-05-09T06:53:05;95283.72;;;16.04;70.27
24280;BME280;12395;42.808;23.408;2023-05-09T06:55:30;95274.28;;;15.78;70.55
24280;BME280;12395;42.808;23.408;2023-05-09T06:57:55;95277.31;;;15.93;72.58
24280;BME280;12395;42.808;23.408;2023-05-09T07:00:21;95282.91;;;16.27;71.40
24280;BME280;12395;42.808;23.408;2023-05-09T07:02:46;95267.59;;;16.34;70.36
24280;BME280;12395;42.808;23.408;2023-05-09T07:05:12;95282.56;;;16.58;67.90
24280;BME280;12395;42.808;23.408;2023-05-09T07:07:37;95258.75;;;16.10;69.83
24280;BME280;12395;42.808;23.408;2023-05-09T07:10:03;95273.06;;;16.50;71.18
24280;BME280;12395;42.808;23.408;2023-05-09T07:12:32;95275.03;;;16.94;66.65
24280;BME280;12395;42.808;23.408;2023-05-09T07:14:58;95269.22;;;16.98;66.26
24280;BME280;12395;42.808;23.408;2023-05-09T07:17:23;95266.31;;;16.59;66.87
24280;BME280;12395;42.808;23.408;2023-05-09T07:19:49;95267.91;;;16.26;69.29
24280;BME280;12395;42.808;23.408;2023-05-09T07:22:15;95283.50;;;16.17;69.11
24280;BME280;12395;42.808;23.408;2023-05-09T07:24:40;95267.22;;;16.30;69.80
24280;BME280;12395;42.808;23.408;2023-05-09T07:27:05;95281.50;;;16.70;67.29
24280;BME280;12395;42.808;23.408;2023-05-09T07:29:31;95264.34;;;16.94;67.89
24280;BME280;12395;42.808;23.408;2023-05-09T07:31:56;95261.03;;;17.32;66.21
24280;BME280;12395;42.808;23.408;2023-05-09T07:34:21;95252.84;;;17.50;66.02
24280;BME280;12395;42.808;23.408;2023-05-09T07:36:49;95283.09;;;17.96;65.50
24280;BME280;12395;42.808;23.408;2023-05-09T07:39:14;95285.84;;;17.84;63.75
24280;BME280;12395;42.808;23.408;2023-05-09T07:41:41;95286.34;;;17.98;63.16
24280;BME280;12395;42.808;23.408;2023-05-09T07:44:06;95282.09;;;18.18;63.67
24280;BME280;12395;42.808;23.408;2023-05-09T07:46:36;95291.28;;;18.22;61.30
24280;BME280;12395;42.808;23.408;2023-05-09T07:49:02;95299.66;;;18.26;61.64
24280;BME280;12395;42.808;23.408;2023-05-09T07:51:28;95301.63;;;18.30;59.25
24280;BME280;12395;42.808;23.408;2023-05-09T07:53:53;95302.72;;;17.68;59.79
24280;BME280;12395;42.808;23.408;2023-05-09T07:56:22;95293.81;;;17.23;61.63
24280;BME280;12395;42.808;23.408;2023-05-09T07:58:47;95294.72;;;16.88;62.71
24280;BME280;12395;42.808;23.408;2023-05-09T08:01:13;95305.13;;;16.73;63.73
24280;BME280;12395;42.808;23.408;2023-05-09T08:03:38;95303.38;;;16.44;64.52
24280;BME280;12395;42.808;23.408;2023-05-09T08:06:04;95294.31;;;16.22;64.49
24280;BME280;12395;42.808;23.408;2023-05-09T08:08:29;95300.66;;;15.75;66.28
24280;BME280;12395;42.808;23.408;2023-05-09T08:10:55;95301.50;;;15.46;67.63
24280;BME280;12395;42.808;23.408;2023-05-09T08:13:21;95290.16;;;15.32;68.58
24280;BME280;12395;42.808;23.408;2023-05-09T08:15:47;95298.84;;;15.27;68.97
24280;BME280;12395;42.808;23.408;2023-05-09T08:18:12;95301.69;;;15.14;70.08
24280;BME280;12395;42.808;23.408;2023-05-09T08:20:38;95299.75;;;15.21;70.40
24280;BME280;12395;42.808;23.408;2023-05-09T08:23:04;95292.16;;;15.36;70.15
24280;BME280;12395;42.808;23.408;2023-05-09T08:25:29;95290.50;;;15.54;69.59
24280;BME280;12395;42.808;23.408;2023-05-09T08:27:55;95299.81;;;15.63;68.83
24280;BME280;12395;42.808;23.408;2023-05-09T08:30:20;95296.47;;;15.79;68.47
24280;BME280;12395;42.808;23.408;2023-05-09T08:32:46;95295.81;;;15.95;69.29
24280;BME280;12395;42.808;23.408;2023-05-09T08:35:11;95297.06;;;16.04;68.21
24280;BME280;12395;42.808;23.408;2023-05-09T08:37:37;95297.69;;;16.29;65.37
24280;BME280;12395;42.808;23.408;2023-05-09T08:40:03;95301.63;;;16.15;66.10
24280;BME280;12395;42.808;23.408;2023-05-09T08:42:32;95289.97;;;15.98;65.76
24280;BME280;12395;42.808;23.408;2023-05-09T08:44:59;95300.34;;;15.94;65.69
24280;BME280;12395;42.808;23.408;2023-05-09T08:47:26;95282.28;;;15.78;65.84
24280;BME280;12395;42.808;23.408;2023-05-09T08:49:53;95275.28;;;15.66;67.55
24280;BME280;12395;42.808;23.408;2023-05-09T08:52:19;95284.66;;;15.86;67.31
24280;BME280;12395;42.808;23.408;2023-05-09T08:54:45;95280.94;;;15.99;67.36
24280;BME280;12395;42.808;23.408;2023-05-09T08:57:11;95277.34;;;16.40;65.41
24280;BME280;12395;42.808;23.408;2023-05-09T08:59:39;95296.53;;;16.25;64.63
24280;BME280;12395;42.808;23.408;2023-05-09T09:02:06;95284.41;;;15.88;65.85
24280;BME280;12395;42.808;23.408;2023-05-09T09:04:32;95284.88;;;15.96;66.95
24280;BME280;12395;42.808;23.408;2023-05-09T09:06:58;95292.00;;;16.14;66.44
24280;BME280;12395;42.808;23.408;2023-05-09T09:09:24;95291.84;;;16.09;65.22
24280;BME280;12395;42.808;23.408;2023-05-09T09:11:50;95288.03;;;16.16;65.98
24280;BME280;12395;42.808;23.408;2023-05-09T09:14:23;95293.38;;;16.40;66.23
24280;BME280;12395;42.808;23.408;2023-05-09T09:16:53;95265.59;;;16.29;65.27
24280;BME280;12395;42.808;23.408;2023-05-09T09:19:21;95272.69;;;16.23;64.45
24280;BME280;12395;42.808;23.408;2023-05-09T09:21:52;95278.84;;;16.59;66.40
24280;BME280;12395;42.808;23.408;2023-05-09T09:24:21;95279.13;;;16.97;64.78
24280;BME280;12395;42.808;23.408;2023-05-09T09:26:48;95280.72;;;17.38;62.51
24280;BME280;12395;42.808;23.408;2023-05-09T09:29:15;95281.44;;;17.33;61.50
24280;BME280;12395;42.808;23.408;2023-05-09T09:31:44;95286.13;;;17.43;62.46
24280;BME280;12395;42.808;23.408;2023-05-09T09:34:11;95266.75;;;17.36;62.59
24280;BME280;12395;42.808;23.408;2023-05-09T09:36:37;95267.16;;;17.44;61.57
24280;BME280;12395;42.808;23.408;2023-05-09T09:39:04;95282.72;;;17.31;61.81
24280;BME280;12395;42.808;23.408;2023-05-09T09:41:34;95267.31;;;17.38;63.42
24280;BME280;12395;42.808;23.408;2023-05-09T09:44:17;95272.44;;;17.67;64.39
24280;BME280;12395;42.808;23.408;2023-05-09T09:49:11;95278.41;;;17.58;59.21
24280;BME280;12395;42.808;23.408;2023-05-09T09:51:37;95263.25;;;17.35;60.78
24280;BME280;12395;42.808;23.408;2023-05-09T09:54:02;95273.22;;;17.23;59.94
24280;BME280;12395;42.808;23.408;2023-05-09T09:56:45;95265.59;;;17.32;60.33
24280;BME280;12395;42.808;23.408;2023-05-09T09:59:13;95280.13;;;17.36;60.94
24280;BME280;12395;42.808;23.408;2023-05-09T10:04:23;95276.94;;;16.82;62.10
24280;BME280;12395;42.808;23.408;2023-05-09T10:07:00;95272.81;;;16.91;64.30
24280;BME280;12395;42.808;23.408;2023-05-09T10:09:27;95275.22;;;17.05;63.76
24280;BME280;12395;42.808;23.408;2023-05-09T10:11:54;95276.47;;;16.85;61.76
24280;BME280;12395;42.808;23.408;2023-05-09T10:14:22;95272.34;;;16.55;62.53
24280;BME280;12395;42.808;23.408;2023-05-09T10:16:50;95248.03;;;16.56;63.26
24280;BME280;12395;42.808;23.408;2023-05-09T10:19:20;95257.91;;;16.44;61.67
24280;BME280;12395;42.808;23.408;2023-05-09T10:21:51;95268.03;;;16.07;62.43
24280;BME280;12395;42.808;23.408;2023-05-09T10:27:09;95248.03;;;15.87;63.06
24280;BME280;12395;42.808;23.408;2023-05-09T10:29:37;95266.03;;;15.80;63.69
24280;BME280;12395;42.808;23.408;2023-05-09T10:32:10;95261.50;;;15.80;65.28
24280;BME280;12395;42.808;23.408;2023-05-09T10:34:41;95249.31;;;15.96;66.35
24280;BME280;12395;42.808;23.408;2023-05-09T10:37:08;95244.69;;;16.03;66.55
24280;BME280;12395;42.808;23.408;2023-05-09T10:39:35;95263.63;;;16.59;64.77
24280;BME280;12395;42.808;23.408;2023-05-09T10:42:01;95254.25;;;16.85;61.22
24280;BME280;12395;42.808;23.408;2023-05-09T10:44:27;95258.97;;;17.06;61.73
24280;BME280;12395;42.808;23.408;2023-05-09T10:46:53;95251.56;;;17.13;61.26
24280;BME280;12395;42.808;23.408;2023-05-09T10:49:20;95273.06;;;17.30;60.34
24280;BME280;12395;42.808;23.408;2023-05-09T10:51:45;95275.47;;;16.63;59.93
24280;BME280;12395;42.808;23.408;2023-05-09T10:54:14;95264.56;;;16.18;62.29
24280;BME280;12395;42.808;23.408;2023-05-09T10:56:49;95272.31;;;15.85;63.24
24280;BME280;12395;42.808;23.408;2023-05-09T10:59:39;95278.09;;;15.71;64.79
24280;BME280;12395;42.808;23.408;2023-05-09T11:02:11;95275.38;;;16.12;65.08
24280;BME280;12395;42.808;23.408;2023-05-09T11:04:39;95263.50;;;16.19;65.10
24280;BME280;12395;42.808;23.408;2023-05-09T11:07:05;95271.63;;;16.48;63.07
24280;BME280;12395;42.808;23.408;2023-05-09T11:09:50;95275.34;;;16.35;64.40
24280;BME280;12395;42.808;23.408;2023-05-09T11:12:18;95269.09;;;16.18;64.34
24280;BME280;12395;42.808;23.408;2023-05-09T11:14:47;95265.25;;;16.14;66.05
24280;BME280;12395;42.808;23.408;2023-05-09T11:22:20;95267.59;;;16.34;65.69
24280;BME280;12395;42.808;23.408;2023-05-09T11:24:50;95262.22;;;16.10;66.30
24280;BME280;12395;42.808;23.408;2023-05-09T11:27:24;95272.78;;;15.94;65.58
24280;BME280;12395;42.808;23.408;2023-05-09T11:29:57;95265.34;;;15.73;66.25
24280;BME280;12395;42.808;23.408;2023-05-09T11:32:50;95258.63;;;15.82;69.89
24280;BME280;12395;42.808;23.408;2023-05-09T11:35:17;95269.75;;;16.02;68.30
24280;BME280;12395;42.808;23.408;2023-05-09T11:40:17;95254.88;;;15.83;67.16
24280;BME280;12395;42.808;23.408;2023-05-09T11:42:49;95267.00;;;15.97;66.29
24280;BME280;12395;42.808;23.408;2023-05-09T11:45:15;95272.91;;;15.99;67.01
24280;BME280;12395;42.808;23.408;2023-05-09T11:47:41;95258.34;;;15.60;67.24
24280;BME280;12395;42.808;23.408;2023-05-09T11:50:11;95268.06;;;15.55;68.37
24280;BME280;12395;42.808;23.408;2023-05-09T11:52:37;95265.50;;;15.18;69.37
24280;BME280;12395;42.808;23.408;2023-05-09T11:55:10;95262.22;;;15.16;70.04
24280;BME280;12395;42.808;23.408;2023-05-09T11:57:47;95263.56;;;15.25;70.37
24280;BME280;12395;42.808;23.408;2023-05-09T12:00:17;95256.53;;;15.42;68.89
24280;BME280;12395;42.808;23.408;2023-05-09T12:02:44;95215.66;;;15.30;69.09
24280;BME280;12395;42.808;23.408;2023-05-09T12:05:14;95259.66;;;15.39;67.68
24280;BME280;12395;42.808;23.408;2023-05-09T12:07:42;95271.16;;;15.10;69.63
24280;BME280;12395;42.808;23.408;2023-05-09T12:10:09;95278.75;;;14.95;69.48
24280;BME280;12395;42.808;23.408;2023-05-09T12:12:36;95265.28;;;14.90;69.91
24280;BME280;12395;42.808;23.408;2023-05-09T12:15:07;95270.47;;;14.67;69.60
24280;BME280;12395;42.808;23.408;2023-05-09T12:17:33;95266.66;;;14.45;71.79
24280;BME280;12395;42.808;23.408;2023-05-09T12:19:59;95260.81;;;14.84;70.89
24280;BME280;12395;42.808;23.408;2023-05-09T12:22:25;95273.63;;;14.94;69.13
24280;BME280;12395;42.808;23.408;2023-05-09T12:24:51;95256.53;;;14.83;70.09
24280;BME280;12395;42.808;23.408;2023-05-09T12:27:18;95255.22;;;15.04;70.17
24280;BME280;12395;42.808;23.408;2023-05-09T12:29:44;95250.69;;;15.22;69.04
24280;BME280;12395;42.808;23.408;2023-05-09T12:32:11;95258.72;;;15.04;68.47
24280;BME280;12395;42.808;23.408;2023-05-09T12:34:38;95244.59;;;14.86;68.94
24280;BME280;12395;42.808;23.408;2023-05-09T12:37:16;95263.38;;;15.38;69.23
24280;BME280;12395;42.808;23.408;2023-05-09T12:40:28;95260.53;;;15.63;67.53
24280;BME280;12395;42.808;23.408;2023-05-09T12:42:33;95262.44;;;15.33;67.35
24280;BME280;12395;42.808;23.408;2023-05-09T12:45:01;95251.72;;;14.92;68.33
24280;BME280;12395;42.808;23.408;2023-05-09T12:47:26;95264.69;;;14.88;69.68
24280;BME280;12395;42.808;23.408;2023-05-09T12:50:00;95258.88;;;14.91;69.17
24280;BME280;12395;42.808;23.408;2023-05-09T12:52:35;95252.16;;;14.89;68.33
24280;BME280;12395;42.808;23.408;2023-05-09T12:55:09;95256.31;;;14.85;68.45
24280;BME280;12395;42.808;23.408;2023-05-09T12:57:35;95236.09;;;14.23;70.39
24280;BME280;12395;42.808;23.408;2023-05-09T13:00:03;95248.88;;;14.14;71.26
24280;BME280;12395;42.808;23.408;2023-05-09T13:02:35;95250.13;;;14.12;71.23
24280;BME280;12395;42.808;23.408;2023-05-09T13:07:55;95242.50;;;13.23;75.10
24280;BME280;12395;42.808;23.408;2023-05-09T13:10:25;95240.19;;;13.33;75.46
24280;BME280;12395;42.808;23.408;2023-05-09T13:12:52;95227.28;;;13.05;75.72
24280;BME280;12395;42.808;23.408;2023-05-09T13:15:19;95234.16;;;13.13;76.54